Time;durP1;ratioP1;P1;durP2;ratioP2;P2;SDS_P1;SDS_P2;PMS_P1;PMS_P2;Temp;Humidity;BMP_temperature;BMP_pressure;BME280_temperature;BME280_humidity;BME280_pressure;Samples;Min_cycle;Max_cycle;Signal;HPM_P1;HPM_P2
2021/06/17 00:06:21;;;;;;;5.17;3.77;;;22.10;62.00;;;;;;20747473;28;20046;-54
2021/06/17 00:16:23;;;;;;;10.43;4.77;;;22.10;61.60;;;;;;20747727;28;20132;-54
2021/06/17 00:26:25;;;;;;;9.53;4.27;;;22.10;61.90;;;;;;20747309;28;20056;-53
2021/06/17 00:36:27;;;;;;;10.77;4.57;;;22.10;62.10;;;;;;20746483;28;20054;-54
2021/06/17 00:46:29;;;;;;;7.87;3.53;;;22.20;61.90;;;;;;20746292;28;20455;-53
2021/06/17 00:56:33;;;;;;;7.72;3.33;;;22.10;61.30;;;;;;20745968;28;20054;-55
2021/06/17 01:06:39;;;;;;;5.68;3.25;;;21.90;60.60;;;;;;20745842;28;20104;-53
2021/06/17 01:16:51;;;;;;;6.35;3.15;;;21.90;60.40;;;;;;20745683;28;20105;-53
2021/06/17 01:27:18;;;;;;;5.03;2.92;;;21.80;60.50;;;;;;20755137;28;20042;-52
2021/06/17 01:37:24;;;;;;;6.20;3.30;;;21.90;60.40;;;;;;20759842;28;20057;-52
2021/06/17 01:47:28;;;;;;;3.20;2.40;;;21.90;60.50;;;;;;20758544;28;20096;-53
2021/06/17 01:57:34;;;;;;;4.93;2.70;;;21.80;60.70;;;;;;20757079;28;20137;-53
2021/06/17 02:07:39;;;;;;;5.05;3.50;;;21.90;61.30;;;;;;20757076;28;20089;-51
2021/06/17 02:17:44;;;;;;;14.63;6.50;;;21.90;62.70;;;;;;20755357;28;20061;-54
2021/06/17 02:27:51;;;;;;;10.80;6.18;;;21.30;67.50;;;;;;20753882;28;20058;-52
2021/06/17 02:37:55;;;;;;;13.27;6.70;;;;;;;;;;20754311;28;20486;-53
2021/06/17 02:47:57;;;;;;;12.80;6.57;;;;;;;;;;20753667;28;20068;-54
2021/06/17 02:58:37;;;;;;;8.18;5.35;;;20.90;67.30;;;;;;20752921;28;20067;-54
2021/06/17 03:08:48;;;;;;;8.80;5.40;;;19.80;71.30;;;;;;20751782;28;20050;-53
2021/06/17 03:18:51;;;;;;;10.30;6.50;;;19.80;71.50;;;;;;20751289;28;20478;-52
2021/06/17 03:28:55;;;;;;;9.48;4.70;;;19.70;71.50;;;;;;20749239;28;20053;-53
2021/06/17 03:38:59;;;;;;;6.45;3.97;;;19.80;71.10;;;;;;20750757;28;20053;-53
2021/06/17 03:49:02;;;;;;;13.05;6.03;;;19.60;70.10;;;;;;20749439;28;20049;-53
2021/06/17 03:59:07;;;;;;;10.70;5.88;;;19.60;71.30;;;;;;20748874;28;20046;-54
2021/06/17 04:09:10;;;;;;;9.15;5.60;;;19.70;72.60;;;;;;20748860;28;20045;-54
2021/06/17 04:19:14;;;;;;;9.18;5.22;;;19.70;73.40;;;;;;20747621;28;20065;-53
2021/06/17 04:29:19;;;;;;;9.88;6.13;;;19.80;72.90;;;;;;20747815;28;20046;-54
2021/06/17 04:39:26;;;;;;;10.68;4.70;;;19.70;72.30;;;;;;20747343;28;20501;-54
2021/06/17 04:49:35;;;;;;;;;;;19.70;71.40;;;;;;20746755;28;20128;-52
2021/06/17 04:59:38;;;;;;;9.02;5.32;;;19.80;70.70;;;;;;20753731;28;19922;-53
2021/06/17 05:20:05;;;;;;;5.50;4.05;;;20.10;71.90;;;;;;20759137;28;20141;-53
2021/06/17 05:30:09;;;;;;;9.27;5.25;;;20.20;71.30;;;;;;20760054;28;20049;-53
2021/06/17 05:40:12;;;;;;;10.55;6.00;;;20.20;70.80;;;;;;20759380;28;20096;-53
2021/06/17 05:50:15;;;;;;;;;;;20.10;69.80;;;;;;20759243;28;20042;-53
2021/06/17 06:00:21;;;;;;;9.25;5.80;;;19.90;70.20;;;;;;20757778;28;19930;-53
2021/06/17 06:10:24;;;;;;;13.90;7.50;;;19.90;69.60;;;;;;20756064;28;20052;-57
2021/06/17 06:20:26;;;;;;;10.17;6.80;;;19.90;70.70;;;;;;20755247;28;20054;-53
2021/06/17 06:30:29;;;;;;;11.15;6.50;;;19.80;71.00;;;;;;20754674;28;20355;-54
2021/06/17 06:40:32;;;;;;;9.35;6.53;;;20.00;70.30;;;;;;20754457;28;20418;-54
2021/06/17 06:50:35;;;;;;;10.30;6.23;;;20.10;69.90;;;;;;20752539;28;20064;-54
2021/06/17 07:00:40;;;;;;;10.30;6.43;;;20.30;68.80;;;;;;20752238;28;20632;-54
2021/06/17 07:10:46;;;;;;;9.75;6.13;;;20.20;68.50;;;;;;20751351;28;20133;-53
2021/06/17 07:20:48;;;;;;;11.50;7.30;;;20.40;68.90;;;;;;20749821;28;20057;-53
2021/06/17 07:30:51;;;;;;;12.57;7.13;;;20.50;69.60;;;;;;20749999;28;20099;-53
2021/06/17 07:40:54;;;;;;;11.00;6.85;;;20.30;71.10;;;;;;20749268;28;20084;-53
2021/06/17 07:50:57;;;;;;;10.55;7.90;;;20.10;71.40;;;;;;20750210;28;20129;-53
2021/06/17 08:01:00;;;;;;;9.53;6.87;;;20.10;71.80;;;;;;20748331;28;20092;-54
2021/06/17 08:11:03;;;;;;;8.07;4.90;;;20.30;70.60;;;;;;20746768;28;20049;-53
2021/06/17 08:21:06;;;;;;;10.70;6.03;;;20.30;69.00;;;;;;20747339;28;20058;-53
2021/06/17 08:31:10;;;;;;;7.78;5.20;;;20.20;70.60;;;;;;20751077;28;20516;-55
2021/06/17 08:41:13;;;;;;;9.13;5.20;;;20.20;70.20;;;;;;20763624;28;20114;-53
2021/06/17 08:51:17;;;;;;;9.95;6.35;;;20.20;71.10;;;;;;20761272;28;20042;-54
2021/06/17 09:01:21;;;;;;;11.13;6.95;;;20.30;70.20;;;;;;20761508;28;20049;-55
2021/06/17 09:11:22;;;;;;;13.37;7.60;;;20.30;71.10;;;;;;20760896;28;20081;-54
2021/06/17 09:21:27;;;;;;;10.90;7.55;;;20.30;70.80;;;;;;20759622;28;20060;-53
2021/06/17 09:31:36;;;;;;;10.63;7.30;;;20.30;70.20;;;;;;20757301;28;20445;-54
2021/06/17 09:41:45;;;;;;;6.72;4.15;;;20.40;69.00;;;;;;20754010;28;20137;-53
2021/06/17 09:51:52;;;;;;;7.25;4.82;;;21.70;64.30;;;;;;20757945;28;20046;-54
2021/06/17 10:01:55;;;;;;;8.10;5.53;;;23.50;58.60;;;;;;20757319;28;20054;-50
2021/06/17 10:11:57;;;;;;;7.47;4.75;;;23.80;58.10;;;;;;20755774;28;20077;-61
2021/06/17 10:22:01;;;;;;;8.15;5.53;;;24.20;57.20;;;;;;20754464;28;20060;-51
2021/06/17 10:32:04;;;;;;;7.47;4.25;;;24.30;56.90;;;;;;20753826;28;20077;-54
2021/06/17 10:42:08;;;;;;;6.45;3.50;;;23.70;58.60;;;;;;20753239;28;20053;-53
2021/06/17 10:52:29;;;;;;;5.22;3.95;;;23.30;58.50;;;;;;20753009;28;20064;-52
2021/06/17 11:02:31;;;;;;;8.27;3.65;;;23.70;57.60;;;;;;20748053;28;20061;-50
2021/06/17 11:12:34;;;;;;;5.45;2.90;;;23.40;58.40;;;;;;20751170;28;20132;-53
2021/06/17 11:22:42;;;;;;;4.75;3.17;;;23.20;58.90;;;;;;20745586;28;20058;-54
2021/06/17 11:32:45;;;;;;;7.43;4.13;;;22.10;63.50;;;;;;20748348;28;20409;-55
2021/06/17 11:42:49;;;;;;;68.70;15.82;;;21.20;67.40;;;;;;20747787;28;20056;-52
2021/06/17 11:52:51;;;;;;;7.13;3.83;;;22.60;63.40;;;;;;20748495;28;20444;-58
2021/06/17 12:02:55;;;;;;;6.03;3.75;;;21.60;67.00;;;;;;20749249;28;20114;-57
2021/06/17 12:13:03;;;;;;;6.70;4.13;;;21.20;69.20;;;;;;20747278;28;20065;-56
2021/06/17 12:23:06;;;;;;;5.47;4.38;;;21.10;68.50;;;;;;20747171;28;20053;-56
2021/06/17 12:33:28;;;;;;;;;;;21.10;68.90;;;;;;20747288;28;20422;-57
2021/06/17 12:43:29;;;;;;;5.90;5.03;;;21.20;67.90;;;;;;20747007;28;19921;-56
2021/06/17 12:53:47;;;;;;;6.00;5.05;;;21.40;67.50;;;;;;20746250;28;20046;-57
2021/06/17 13:03:50;;;;;;;7.35;5.00;;;22.00;65.40;;;;;;20746486;28;20085;-57
2021/06/17 13:14:06;;;;;;;8.30;4.32;;;22.30;62.60;;;;;;20745694;28;20165;-57
2021/06/17 13:24:17;;;;;;;8.75;5.65;;;22.70;61.70;;;;;;20757680;28;20085;-56
2021/06/17 13:34:21;;;;;;;5.28;4.10;;;22.90;60.50;;;;;;20759433;28;20049;-58
2021/06/17 13:44:23;;;;;;;6.13;3.67;;;23.00;57.30;;;;;;20759114;28;20046;-57
2021/06/17 13:54:26;;;;;;;5.78;3.83;;;23.00;56.80;;;;;;20759053;28;20050;-57
2021/06/17 14:04:28;;;;;;;6.47;3.92;;;22.90;57.30;;;;;;20757339;28;20046;-56
2021/06/17 14:14:30;;;;;;;11.20;8.55;;;23.00;55.90;;;;;;20756402;28;20054;-57
2021/06/17 14:24:32;;;;;;;6.17;3.50;;;22.90;55.20;;;;;;20756670;28;20045;-57
2021/06/17 14:34:34;;;;;;;4.67;3.67;;;23.10;53.50;;;;;;20754986;28;20307;-57
2021/06/17 14:44:36;;;;;;;4.37;3.53;;;23.20;53.60;;;;;;20755473;28;20508;-56
2021/06/17 14:54:37;;;;;;;8.60;3.87;;;23.50;52.80;;;;;;20754109;28;20046;-59
2021/06/17 15:04:38;;;;;;;5.97;4.07;;;23.80;52.50;;;;;;20752672;28;20493;-57
2021/06/17 15:14:40;;;;;;;5.50;4.00;;;24.00;50.80;;;;;;20752272;28;20050;-58
2021/06/17 15:24:41;;;;;;;5.90;4.03;;;24.20;50.20;;;;;;20751867;28;20050;-57
2021/06/17 15:34:42;;;;;;;7.20;4.10;;;24.30;49.60;;;;;;20747156;28;20057;-49
2021/06/17 15:44:44;;;;;;;5.77;3.60;;;24.80;50.60;;;;;;20746812;28;20046;-55
2021/06/17 15:54:45;;;;;;;5.57;3.97;;;25.10;49.00;;;;;;20749384;28;20453;-54
2021/06/17 16:04:47;;;;;;;7.00;4.20;;;25.10;48.60;;;;;;20747985;28;20046;-61
2021/06/17 16:14:48;;;;;;;6.30;3.83;;;25.30;49.00;;;;;;20747406;28;20126;-56
2021/06/17 16:24:50;;;;;;;5.77;3.80;;;25.50;48.20;;;;;;20748128;28;20042;-55
2021/06/17 16:34:51;;;;;;;;;;;25.40;47.90;;;;;;20748176;28;20183;-54
2021/06/17 16:44:53;;;;;;;5.85;4.30;;;25.50;47.90;;;;;;20747695;28;20022;-57
2021/06/17 16:54:54;;;;;;;5.37;3.53;;;25.20;50.00;;;;;;20755429;28;20057;-56
2021/06/17 17:04:55;;;;;;;7.07;3.47;;;25.00;52.90;;;;;;20761162;28;20303;-54
2021/06/17 17:14:57;;;;;;;3.93;2.20;;;25.20;51.40;;;;;;20762959;28;20495;-56
2021/06/17 17:24:58;;;;;;;3.97;2.47;;;25.20;47.70;;;;;;20761021;28;20057;-56
2021/06/17 17:35:00;;;;;;;5.57;2.57;;;25.20;46.30;;;;;;20774958;28;20085;-53
2021/06/17 17:45:02;;;;;;;4.70;2.55;;;25.30;45.70;;;;;;20755997;28;20089;-54
2021/06/17 17:55:07;;;;;;;6.90;2.78;;;25.50;45.10;;;;;;20755796;28;20057;-53
2021/06/17 18:05:09;;;;;;;21.08;5.90;;;25.50;43.90;;;;;;20751407;28;20042;-54
2021/06/17 18:15:13;;;;;;;17.52;3.90;;;25.50;45.50;;;;;;20754707;28;20224;-55
2021/06/17 18:25:15;;;;;;;6.07;3.10;;;25.60;45.50;;;;;;20755646;28;20078;-55
2021/06/17 18:35:16;;;;;;;6.00;2.92;;;25.60;44.00;;;;;;20753577;28;20046;-56
2021/06/17 18:45:18;;;;;;;6.40;3.10;;;25.50;45.50;;;;;;20753062;28;20046;-54
2021/06/17 18:55:20;;;;;;;5.88;3.13;;;25.60;45.10;;;;;;20752320;28;20478;-54
2021/06/17 19:05:22;;;;;;;5.15;3.83;;;25.60;45.50;;;;;;20751834;28;20073;-52
2021/06/17 19:15:25;;;;;;;6.35;4.00;;;25.50;45.70;;;;;;20749770;28;20049;-55
2021/06/17 19:25:28;;;;;;;6.60;3.53;;;25.10;45.70;;;;;;20750057;28;20076;-57
2021/06/17 19:35:30;;;;;;;5.68;3.55;;;24.50;46.70;;;;;;20748878;28;20050;-53
2021/06/17 19:45:32;;;;;;;8.77;4.85;;;24.20;47.20;;;;;;20748586;28;20064;-53
2021/06/17 19:55:37;;;;;;;7.13;4.28;;;23.90;48.00;;;;;;20748415;28;20062;-57
2021/06/17 20:05:42;;;;;;;8.65;5.10;;;23.70;49.20;;;;;;20747357;28;20050;-53
2021/06/17 20:15:45;;;;;;;6.10;4.35;;;23.60;49.50;;;;;;20747225;28;20100;-58
2021/06/17 20:25:47;;;;;;;8.32;5.55;;;23.50;49.60;;;;;;20747550;28;20042;-56
2021/06/17 20:35:48;;;;;;;;;;;23.40;52.20;;;;;;20746284;28;20417;-57
2021/06/17 20:45:52;;;;;;;9.70;6.30;;;23.10;54.20;;;;;;20745452;28;19921;-56
2021/06/17 20:55:54;;;;;;;8.13;6.28;;;23.00;55.30;;;;;;20745820;28;20058;-58
2021/06/17 21:05:56;;;;;;;8.27;6.25;;;23.10;55.70;;;;;;20759764;28;20112;-57
2021/06/17 21:15:58;;;;;;;10.43;7.33;;;22.80;56.70;;;;;;20743661;28;20427;-56
2021/06/17 21:26:00;;;;;;;10.00;6.80;;;22.70;57.50;;;;;;20743966;28;20056;-56
2021/06/17 21:36:02;;;;;;;;;;;22.60;56.80;;;;;;20745332;28;20525;-55
2021/06/17 21:46:05;;;;;;;8.65;6.28;;;22.50;57.70;;;;;;20758325;28;19960;-54
2021/06/17 21:56:06;;;;;;;8.77;6.22;;;22.50;56.70;;;;;;20758752;28;20062;-57
2021/06/17 22:06:08;;;;;;;12.50;7.07;;;22.60;57.70;;;;;;20757238;28;20112;-56
2021/06/17 22:16:10;;;;;;;9.07;5.60;;;22.50;61.10;;;;;;20755965;28;20054;-57
2021/06/17 22:26:12;;;;;;;7.85;5.95;;;22.00;63.60;;;;;;20754356;28;20050;-56
2021/06/17 22:36:14;;;;;;;6.17;5.40;;;21.60;65.30;;;;;;20754414;28;20054;-57
2021/06/17 22:46:17;;;;;;;9.63;5.75;;;21.30;67.10;;;;;;20755034;28;20046;-58
2021/06/17 22:56:19;;;;;;;9.23;6.10;;;21.10;69.10;;;;;;20754282;28;20072;-52
2021/06/17 23:06:21;;;;;;;6.97;5.33;;;21.00;69.00;;;;;;20752400;28;20080;-53
2021/06/17 23:16:23;;;;;;;8.33;5.97;;;20.90;69.10;;;;;;20751021;28;20054;-53
2021/06/17 23:26:25;;;;;;;7.87;5.93;;;20.80;68.80;;;;;;20751468;28;20083;-57
2021/06/17 23:36:27;;;;;;;11.67;6.07;;;20.70;68.90;;;;;;20750391;28;20054;-57
2021/06/17 23:46:29;;;;;;;8.43;5.85;;;20.70;68.90;;;;;;20749889;28;20318;-57
2021/06/17 23:56:31;;;;;;;8.45;6.28;;;20.60;69.60;;;;;;20749361;28;20045;-57
